createdAt,value
2023-04-19T00:01:05.023Z,7.60
2023-04-19T00:03:31.761Z,7.51
2023-04-19T00:05:59.473Z,7.59
2023-04-19T00:08:26.580Z,7.56
2023-04-19T00:10:53.378Z,7.53
2023-04-19T00:13:20.033Z,7.51
2023-04-19T00:15:46.814Z,7.26
2023-04-19T00:18:13.368Z,7.40
2023-04-19T00:20:39.997Z,7.40
2023-04-19T00:23:06.672Z,7.37
2023-04-19T00:25:34.878Z,7.34
2023-04-19T00:28:01.610Z,7.37
2023-04-19T00:30:28.359Z,6.11
2023-04-19T00:32:55.117Z,7.28
2023-04-19T00:35:21.766Z,7.21
2023-04-19T00:37:48.572Z,7.14
2023-04-19T00:40:15.435Z,7.18
2023-04-19T00:42:42.425Z,6.81
2023-04-19T00:45:09.647Z,7.15
2023-04-19T00:47:36.566Z,7.13
2023-04-19T00:53:09.734Z,7.06
2023-04-19T00:55:36.644Z,7.24
2023-04-19T00:58:03.290Z,7.21
2023-04-19T01:00:29.897Z,7.19
2023-04-19T01:02:56.661Z,7.19
2023-04-19T01:05:23.564Z,6.70
2023-04-19T01:07:50.542Z,6.74
2023-04-19T01:10:17.171Z,6.98
2023-04-19T01:12:43.977Z,6.99
2023-04-19T01:15:10.939Z,7.08
2023-04-19T01:17:37.864Z,7.16
2023-04-19T01:20:08.945Z,7.10
2023-04-19T01:22:37.851Z,6.99
2023-04-19T01:25:05.269Z,6.98
2023-04-19T01:27:31.817Z,6.97
2023-04-19T01:29:58.935Z,7.13
2023-04-19T01:32:28.493Z,7.16
2023-04-19T01:34:55.183Z,6.78
2023-04-19T01:37:21.750Z,6.57
2023-04-19T01:39:48.284Z,7.12
2023-04-19T01:42:14.937Z,7.06
2023-04-19T01:44:41.622Z,7.09
2023-04-19T01:47:08.344Z,7.00
2023-04-19T01:49:35.044Z,6.99
2023-04-19T01:52:01.708Z,6.69
2023-04-19T01:54:28.254Z,6.93
2023-04-19T01:56:54.890Z,6.98
2023-04-19T01:59:21.427Z,7.02
2023-04-19T02:01:48.004Z,6.97
2023-04-19T02:04:14.868Z,6.80
2023-04-19T02:06:41.707Z,6.95
2023-04-19T02:09:08.596Z,6.89
2023-04-19T02:11:35.245Z,6.89
2023-04-19T02:14:01.913Z,6.85
2023-04-19T02:16:28.695Z,6.84
2023-04-19T02:18:55.329Z,6.53
2023-04-19T02:21:21.869Z,6.78
2023-04-19T02:23:48.486Z,6.81
2023-04-19T02:26:15.022Z,6.80
2023-04-19T02:28:41.637Z,6.86
2023-04-19T02:31:08.607Z,6.87
2023-04-19T02:33:35.693Z,6.84
2023-04-19T02:36:02.361Z,6.68
2023-04-19T02:38:28.976Z,6.79
2023-04-19T02:40:55.811Z,6.78
2023-04-19T02:43:22.383Z,6.69
2023-04-19T02:45:49.052Z,6.84
2023-04-19T02:48:15.716Z,6.83
2023-04-19T02:50:42.283Z,6.62
2023-04-19T02:53:08.908Z,6.59
2023-04-19T02:55:35.468Z,6.23
2023-04-19T02:58:02.092Z,6.78
2023-04-19T03:00:28.898Z,6.20
2023-04-19T03:02:56.574Z,6.40
2023-04-19T03:05:24.092Z,6.79
2023-04-19T03:07:50.797Z,6.75
2023-04-19T03:10:17.398Z,6.75
2023-04-19T03:12:43.964Z,6.70
2023-04-19T03:15:11.209Z,6.34
2023-04-19T03:17:38.026Z,6.38
2023-04-19T03:20:09.955Z,6.65
2023-04-19T03:22:36.566Z,6.69
2023-04-19T03:25:03.561Z,6.51
2023-04-19T03:27:30.344Z,6.69
2023-04-19T03:29:57.496Z,6.68
2023-04-19T03:32:24.129Z,6.52
2023-04-19T03:34:50.750Z,6.75
2023-04-19T03:37:17.304Z,6.71
2023-04-19T03:39:43.847Z,6.20
2023-04-19T03:42:10.765Z,6.57
2023-04-19T03:44:37.358Z,6.85
2023-04-19T03:47:03.990Z,6.50
2023-04-19T03:49:30.626Z,6.78
2023-04-19T03:51:57.233Z,6.92
2023-04-19T03:54:23.820Z,6.83
2023-04-19T03:56:50.461Z,6.77
2023-04-19T03:59:17.045Z,6.80
2023-04-19T04:01:43.714Z,6.79
2023-04-19T04:04:10.664Z,6.86
2023-04-19T04:06:42.863Z,6.17
2023-04-19T04:09:09.539Z,6.44
2023-04-19T04:11:36.115Z,6.44
2023-04-19T04:14:02.746Z,6.68
2023-04-19T04:16:29.428Z,6.76
2023-04-19T04:18:56.097Z,6.56
2023-04-19T04:21:24.365Z,6.68
2023-04-19T04:23:51.754Z,6.63
2023-04-19T04:26:20.521Z,6.71
2023-04-19T04:28:47.299Z,6.71
2023-04-19T04:31:14.003Z,6.78
2023-04-19T04:33:41.813Z,6.55
2023-04-19T04:36:09.834Z,6.85
2023-04-19T04:38:37.098Z,6.89
2023-04-19T04:41:03.661Z,6.93
2023-04-19T04:43:30.330Z,6.97
2023-04-19T04:45:58.415Z,6.81
2023-04-19T04:48:25.563Z,7.18
2023-04-19T04:50:52.170Z,7.22
2023-04-19T04:53:18.799Z,7.33
2023-04-19T04:55:45.383Z,7.36
2023-04-19T04:58:11.936Z,7.39
2023-04-19T05:00:38.651Z,7.39
2023-04-19T05:03:05.473Z,7.53
2023-04-19T05:05:32.209Z,7.58
2023-04-19T05:07:59.034Z,7.65
2023-04-19T05:10:25.718Z,7.63
2023-04-19T05:12:52.286Z,7.64
2023-04-19T05:15:19.043Z,7.63
2023-04-19T05:17:45.957Z,7.64
2023-04-19T05:20:12.602Z,7.62
2023-04-19T05:22:39.163Z,7.78
2023-04-19T05:25:06.633Z,7.87
2023-04-19T05:27:33.210Z,7.64
2023-04-19T05:29:59.811Z,7.75
2023-04-19T05:32:26.445Z,7.75
2023-04-19T05:34:53.160Z,7.90
2023-04-19T05:37:19.864Z,7.96
2023-04-19T05:39:46.653Z,7.34
2023-04-19T05:42:13.166Z,8.08
2023-04-19T05:44:39.814Z,8.09
2023-04-19T05:50:04.476Z,8.30
2023-04-19T05:52:44.473Z,8.39
2023-04-19T05:55:17.750Z,8.39
2023-04-19T05:58:21.278Z,8.47
2023-04-19T06:00:49.725Z,8.65
2023-04-19T06:03:18.670Z,8.40
2023-04-19T06:05:45.536Z,8.66
2023-04-19T06:08:12.289Z,8.60
2023-04-19T06:10:51.892Z,8.91
2023-04-19T06:13:20.973Z,8.95
2023-04-19T06:15:48.320Z,9.10
2023-04-19T06:18:19.550Z,8.77
2023-04-19T06:20:47.031Z,9.08
2023-04-19T06:23:15.190Z,9.24
2023-04-19T06:25:42.150Z,9.33
2023-04-19T06:28:08.930Z,9.43
2023-04-19T06:30:35.792Z,9.48
2023-04-19T06:33:02.744Z,8.99
2023-04-19T06:35:29.306Z,9.39
2023-04-19T06:37:56.509Z,9.50
2023-04-19T06:40:23.177Z,9.29
2023-04-19T06:42:49.904Z,9.74
2023-04-19T06:45:16.653Z,9.74
2023-04-19T06:47:43.745Z,9.98
2023-04-19T06:50:11.182Z,9.77
2023-04-19T06:52:38.489Z,10.16
2023-04-19T06:55:07.239Z,10.12
2023-04-19T06:57:33.846Z,10.24
2023-04-19T07:00:00.554Z,10.32
2023-04-19T07:02:27.315Z,10.06
2023-04-19T07:04:53.990Z,10.40
2023-04-19T07:07:20.612Z,10.61
2023-04-19T07:09:47.311Z,10.62
2023-04-19T07:12:13.949Z,10.69
2023-04-19T07:14:40.747Z,10.91
2023-04-19T07:17:10.191Z,10.47
2023-04-19T07:19:36.868Z,10.14
2023-04-19T07:22:03.704Z,11.00
2023-04-19T07:24:30.579Z,11.09
2023-04-19T07:26:57.794Z,11.06
2023-04-19T07:29:24.845Z,11.05
2023-04-19T07:31:51.528Z,11.34
2023-04-19T07:34:18.400Z,11.04
2023-04-19T07:36:45.203Z,11.47
2023-04-19T07:39:12.132Z,10.88
2023-04-19T07:41:38.774Z,11.40
2023-04-19T07:44:05.662Z,11.44
2023-04-19T07:46:32.399Z,11.36
2023-04-19T07:48:59.003Z,11.60
2023-04-19T07:51:26.351Z,11.60
2023-04-19T07:53:52.960Z,11.71
2023-04-19T07:56:20.358Z,11.87
2023-04-19T07:58:53.642Z,11.90
2023-04-19T08:01:27.439Z,12.08
2023-04-19T08:03:54.317Z,12.16
2023-04-19T08:06:21.894Z,11.94
2023-04-19T08:08:50.098Z,12.16
2023-04-19T08:11:16.831Z,12.25
2023-04-19T08:13:51.582Z,12.41
2023-04-19T08:17:09.145Z,12.56
2023-04-19T08:19:14.838Z,12.29
2023-04-19T08:21:41.923Z,12.59
2023-04-19T08:24:08.825Z,12.78
2023-04-19T08:26:35.649Z,12.73
2023-04-19T08:29:02.401Z,12.70
2023-04-19T08:31:29.255Z,12.55
2023-04-19T08:33:55.940Z,13.08
2023-04-19T08:36:35.477Z,13.00
2023-04-19T08:39:08.286Z,12.99
2023-04-19T08:41:40.231Z,13.10
2023-04-19T08:44:08.427Z,13.29
2023-04-19T08:46:35.602Z,13.13
2023-04-19T08:49:05.559Z,12.84
2023-04-19T08:51:33.051Z,13.21
2023-04-19T08:54:01.075Z,13.25
2023-04-19T08:56:35.218Z,13.55
2023-04-19T08:59:15.773Z,13.66
2023-04-19T09:01:45.124Z,13.76
2023-04-19T09:04:34.846Z,13.88
2023-04-19T09:06:58.456Z,13.96
2023-04-19T09:11:59.517Z,13.80
2023-04-19T09:14:28.322Z,13.90
2023-04-19T09:17:13.122Z,14.05
2023-04-19T09:19:48.098Z,14.27
2023-04-19T09:22:15.398Z,13.30
2023-04-19T09:27:15.200Z,14.21
2023-04-19T09:29:41.901Z,14.32
2023-04-19T09:32:08.583Z,14.47
2023-04-19T09:34:35.316Z,14.49
2023-04-19T09:37:25.009Z,14.61
2023-04-19T09:40:03.227Z,14.31
2023-04-19T09:48:03.964Z,14.87
2023-04-19T09:50:31.802Z,14.85
2023-04-19T09:52:59.939Z,14.92
2023-04-19T09:55:29.265Z,14.67
2023-04-19T09:57:58.265Z,14.92
2023-04-19T10:00:26.125Z,15.14
2023-04-19T10:02:58.639Z,15.06
2023-04-19T10:05:26.545Z,15.14
2023-04-19T10:07:58.564Z,15.00
2023-04-19T10:10:41.244Z,14.87
2023-04-19T10:13:19.951Z,15.06
2023-04-19T10:15:52.477Z,15.06
2023-04-19T10:18:20.944Z,14.86
2023-04-19T10:20:50.618Z,15.05
2023-04-19T10:23:18.414Z,15.13
2023-04-19T10:25:48.506Z,15.30
2023-04-19T10:28:18.512Z,14.98
2023-04-19T10:30:57.499Z,15.44
2023-04-19T10:33:28.851Z,15.33
2023-04-19T10:35:57.295Z,14.84
2023-04-19T10:38:52.407Z,15.48
2023-04-19T10:41:19.705Z,15.69
2023-04-19T10:43:48.564Z,15.67
2023-04-19T10:46:21.210Z,15.62
2023-04-19T10:49:14.079Z,16.00
2023-04-19T10:51:44.498Z,16.72
2023-04-19T10:54:55.722Z,17.58
2023-04-19T10:57:22.354Z,18.82
2023-04-19T11:00:25.971Z,19.88
2023-04-19T11:02:52.746Z,21.87
2023-04-19T11:05:20.389Z,23.86
2023-04-19T11:07:47.173Z,24.95
2023-04-19T11:10:14.047Z,26.71
2023-04-19T11:12:44.639Z,27.03
2023-04-19T11:15:12.523Z,27.20
2023-04-19T11:17:39.749Z,29.54
2023-04-19T11:20:10.091Z,28.58
2023-04-19T11:22:41.388Z,28.56
2023-04-19T11:25:14.747Z,27.86
2023-04-19T11:27:43.223Z,26.30
2023-04-19T11:30:12.607Z,25.39
2023-04-19T11:32:45.989Z,24.45
2023-04-19T11:35:12.715Z,23.41
2023-04-19T11:37:39.800Z,24.00
2023-04-19T11:40:07.930Z,23.67
2023-04-19T11:42:34.727Z,24.58
2023-04-19T11:45:02.634Z,24.69
2023-04-19T11:47:29.433Z,23.79
2023-04-19T11:49:58.659Z,22.38
2023-04-19T11:52:26.561Z,22.17
2023-04-19T11:54:53.887Z,21.80
2023-04-19T11:57:31.051Z,21.00
2023-04-19T12:00:27.644Z,20.32
2023-04-19T12:02:55.483Z,20.96
2023-04-19T12:05:24.544Z,22.46
2023-04-19T12:08:00.019Z,22.61
2023-04-19T12:10:26.649Z,23.33
2023-04-19T12:12:53.241Z,25.65
2023-04-19T12:15:22.216Z,25.32
2023-04-19T12:17:57.895Z,24.11
2023-04-19T12:20:34.613Z,23.65
2023-04-19T12:23:01.632Z,23.13
2023-04-19T12:25:33.412Z,24.71
2023-04-19T12:28:03.135Z,24.18
2023-04-19T12:30:33.334Z,23.01
2023-04-19T12:32:59.932Z,22.86
2023-04-19T12:35:27.773Z,23.16
2023-04-19T12:37:55.898Z,23.78
2023-04-19T12:40:23.497Z,24.33
2023-04-19T12:42:51.212Z,24.51
2023-04-19T12:45:18.966Z,23.84
2023-04-19T12:47:47.463Z,24.86
2023-04-19T12:50:16.272Z,25.40
2023-04-19T12:52:44.716Z,26.72
2023-04-19T12:55:11.445Z,27.74
2023-04-19T12:57:38.000Z,27.87
2023-04-19T13:00:06.235Z,28.69
2023-04-19T13:02:35.407Z,28.16
2023-04-19T13:05:05.205Z,29.56
2023-04-19T13:07:31.959Z,29.69
2023-04-19T13:09:58.552Z,31.00
2023-04-19T13:12:25.361Z,31.29
2023-04-19T13:14:52.750Z,30.89
2023-04-19T13:17:20.570Z,30.29
2023-04-19T13:19:47.709Z,31.69
2023-04-19T13:22:14.857Z,31.29
2023-04-19T13:24:42.850Z,32.49
2023-04-19T13:27:13.915Z,31.53
2023-04-19T13:29:42.646Z,32.62
2023-04-19T13:32:12.716Z,32.93
2023-04-19T13:34:45.184Z,34.79
2023-04-19T13:37:15.974Z,34.30
2023-04-19T13:39:43.030Z,30.71
2023-04-19T13:42:09.989Z,30.04
2023-04-19T13:44:36.739Z,32.51
2023-04-19T13:47:03.420Z,33.90
2023-04-19T13:49:31.335Z,32.28
2023-04-19T13:51:57.937Z,31.53
2023-04-19T13:54:24.552Z,29.65
2023-04-19T13:56:52.421Z,29.02
2023-04-19T13:59:19.353Z,28.71
2023-04-19T14:01:46.032Z,30.25
2023-04-19T14:04:12.887Z,29.66
2023-04-19T14:06:40.343Z,30.05
2023-04-19T14:09:06.950Z,28.39
2023-04-19T14:11:33.760Z,28.05
2023-04-19T14:14:00.979Z,29.22
2023-04-19T14:16:27.861Z,30.56
2023-04-19T14:18:54.544Z,31.08
2023-04-19T14:21:21.150Z,29.03
2023-04-19T14:23:47.768Z,29.97
2023-04-19T14:26:14.762Z,30.78
2023-04-19T14:28:41.536Z,31.25
2023-04-19T14:31:08.316Z,32.36
2023-04-19T14:33:35.050Z,31.98
2023-04-19T14:36:01.752Z,28.69
2023-04-19T14:38:28.551Z,29.31
2023-04-19T14:40:55.693Z,28.70
2023-04-19T14:43:22.596Z,28.57
2023-04-19T14:45:50.227Z,30.98
2023-04-19T14:48:17.030Z,30.66
2023-04-19T14:50:43.662Z,31.17
2023-04-19T14:53:10.396Z,31.18
2023-04-19T14:55:37.648Z,32.21
2023-04-19T14:58:04.903Z,32.51
2023-04-19T15:00:31.956Z,30.84
2023-04-19T15:02:58.699Z,30.55
2023-04-19T15:05:27.861Z,31.06
2023-04-19T15:07:54.562Z,31.21
2023-04-19T15:10:21.174Z,30.87
2023-04-19T15:12:47.792Z,33.08
2023-04-19T15:15:14.427Z,29.63
2023-04-19T15:17:41.362Z,32.19
2023-04-19T15:20:09.049Z,31.45
2023-04-19T15:22:35.705Z,32.55
2023-04-19T15:25:03.899Z,32.14
2023-04-19T15:27:31.782Z,31.22
2023-04-19T15:29:58.438Z,30.98
2023-04-19T15:32:25.373Z,28.51
2023-04-19T15:34:51.958Z,30.62
2023-04-19T15:37:18.606Z,28.19
2023-04-19T15:39:47.792Z,28.46
2023-04-19T15:42:14.383Z,28.49
2023-04-19T15:44:42.824Z,26.89
2023-04-19T15:47:10.698Z,27.76
2023-04-19T15:49:37.480Z,28.92
2023-04-19T15:52:04.164Z,28.63
2023-04-19T15:54:31.590Z,29.13
2023-04-19T15:56:58.208Z,27.26
2023-04-19T15:59:25.071Z,27.40
2023-04-19T16:01:51.796Z,28.61
2023-04-19T16:04:19.138Z,29.21
2023-04-19T16:06:46.013Z,28.89
2023-04-19T16:09:12.672Z,28.69
2023-04-19T16:11:39.364Z,26.11
2023-04-19T16:14:06.086Z,24.63
2023-04-19T16:16:34.527Z,24.09
2023-04-19T16:19:01.201Z,22.84
2023-04-19T16:21:31.089Z,21.19
2023-04-19T16:23:57.856Z,20.06
2023-04-19T16:26:24.556Z,19.84
2023-04-19T16:28:51.529Z,19.26
2023-04-19T16:31:18.583Z,19.10
2023-04-19T16:33:45.605Z,17.98
2023-04-19T16:36:12.147Z,18.64
2023-04-19T16:38:38.766Z,17.70
2023-04-19T16:41:06.062Z,17.32
2023-04-19T16:43:32.911Z,17.28
2023-04-19T16:45:59.655Z,16.50
2023-04-19T16:48:27.139Z,16.70
2023-04-19T16:50:53.735Z,16.40
2023-04-19T16:53:20.506Z,16.14
2023-04-19T16:55:47.207Z,16.29
2023-04-19T16:58:14.351Z,15.75
2023-04-19T17:00:41.292Z,15.49
2023-04-19T17:03:09.650Z,15.69
2023-04-19T17:05:36.809Z,15.91
2023-04-19T17:08:03.472Z,15.67
2023-04-19T17:10:30.210Z,15.52
2023-04-19T17:12:56.880Z,15.49
2023-04-19T17:15:23.786Z,14.74
2023-04-19T17:17:50.534Z,14.79
2023-04-19T17:20:17.735Z,14.09
2023-04-19T17:22:44.351Z,14.46
2023-04-19T17:25:11.177Z,14.51
2023-04-19T17:27:39.200Z,14.47
2023-04-19T17:30:07.551Z,14.03
2023-04-19T17:32:34.308Z,14.38
2023-04-19T17:35:00.905Z,14.59
2023-04-19T17:37:27.466Z,14.13
2023-04-19T17:39:54.077Z,14.37
2023-04-19T17:42:20.707Z,14.40
2023-04-19T17:44:47.907Z,13.89
2023-04-19T17:47:14.630Z,13.61
2023-04-19T17:49:41.717Z,14.04
2023-04-19T17:52:08.591Z,13.98
2023-04-19T17:54:35.268Z,14.04
2023-04-19T17:57:02.752Z,13.67
2023-04-19T17:59:29.508Z,13.86
2023-04-19T18:01:57.142Z,13.46
2023-04-19T18:04:24.443Z,13.10
2023-04-19T18:06:51.157Z,13.37
2023-04-19T18:09:21.248Z,13.30
2023-04-19T18:11:48.005Z,13.37
2023-04-19T18:14:15.566Z,13.39
2023-04-19T18:16:42.278Z,13.25
2023-04-19T18:19:09.086Z,13.03
2023-04-19T18:21:35.790Z,12.82
2023-04-19T18:24:04.305Z,12.69
2023-04-19T18:26:41.006Z,11.59
2023-04-19T18:29:08.086Z,12.70
2023-04-19T18:31:34.901Z,12.57
2023-04-19T18:34:02.388Z,12.51
2023-04-19T18:36:29.122Z,12.38
2023-04-19T18:38:55.980Z,12.16
2023-04-19T18:41:22.669Z,11.69
2023-04-19T18:44:08.034Z,11.98
2023-04-19T18:46:36.024Z,12.03
2023-04-19T18:49:03.874Z,11.56
2023-04-19T18:51:30.911Z,12.06
2023-04-19T18:53:57.548Z,11.95
2023-04-19T18:56:54.248Z,12.08
2023-04-19T18:59:12.466Z,11.69
2023-04-19T19:01:39.207Z,11.97
2023-04-19T19:06:35.986Z,11.58
2023-04-19T19:09:02.846Z,11.97
2023-04-19T19:14:00.284Z,11.95
2023-04-19T19:16:27.450Z,11.87
2023-04-19T19:18:55.935Z,11.50
2023-04-19T19:21:22.533Z,11.70
2023-04-19T19:23:49.649Z,11.51
2023-04-19T19:26:16.440Z,11.34
2023-04-19T19:28:43.395Z,11.74
2023-04-19T19:31:10.160Z,11.67
2023-04-19T19:36:04.832Z,11.32
2023-04-19T19:38:31.685Z,11.29
2023-04-19T19:43:27.779Z,11.25
2023-04-19T19:45:54.408Z,10.80
2023-04-19T19:48:21.121Z,11.00
2023-04-19T19:51:20.359Z,10.89
2023-04-19T19:53:34.349Z,10.90
2023-04-19T19:56:04.359Z,9.93
2023-04-19T19:58:48.294Z,10.84
2023-04-19T20:01:17.611Z,10.81
2023-04-19T20:03:44.436Z,10.51
2023-04-19T20:07:02.999Z,10.79
2023-04-19T20:08:59.771Z,10.55
2023-04-19T20:11:26.683Z,10.94
2023-04-19T20:13:53.912Z,10.88
2023-04-19T20:16:21.143Z,10.73
2023-04-19T20:18:49.345Z,10.90
2023-04-19T20:21:18.039Z,10.84
2023-04-19T20:23:44.636Z,10.89
2023-04-19T20:26:11.343Z,10.72
2023-04-19T20:28:38.913Z,11.07
2023-04-19T20:31:06.196Z,11.01
2023-04-19T20:33:32.785Z,10.65
2023-04-19T20:36:00.804Z,10.90
2023-04-19T20:38:27.555Z,10.86
2023-04-19T20:40:54.118Z,11.06
2023-04-19T20:43:20.779Z,10.91
2023-04-19T20:45:47.543Z,10.79
2023-04-19T20:48:14.261Z,10.81
2023-04-19T20:50:41.334Z,10.18
2023-04-19T20:53:07.885Z,10.91
2023-04-19T20:55:35.065Z,10.39
2023-04-19T20:58:02.875Z,10.87
2023-04-19T21:00:29.526Z,10.87
2023-04-19T21:02:56.225Z,10.85
2023-04-19T21:05:22.925Z,10.45
2023-04-19T21:07:49.557Z,10.96
2023-04-19T21:10:17.405Z,11.17
2023-04-19T21:12:44.083Z,10.58
2023-04-19T21:15:12.270Z,10.90
2023-04-19T21:17:39.551Z,11.15
2023-04-19T21:20:12.392Z,10.72
2023-04-19T21:22:44.094Z,11.15
2023-04-19T21:25:14.830Z,11.08
2023-04-19T21:27:42.325Z,11.29
2023-04-19T21:30:10.533Z,11.41
2023-04-19T21:32:37.179Z,11.39
2023-04-19T21:35:04.172Z,11.32
2023-04-19T21:37:31.091Z,10.58
2023-04-19T21:40:00.642Z,10.73
2023-04-19T21:42:27.246Z,11.18
2023-04-19T21:44:53.907Z,11.46
2023-04-19T21:47:20.968Z,11.49
2023-04-19T21:49:47.704Z,11.32
2023-04-19T21:52:14.283Z,11.29
2023-04-19T21:54:40.872Z,11.58
2023-04-19T21:57:07.546Z,11.53
2023-04-19T21:59:35.784Z,11.45
2023-04-19T22:02:02.558Z,11.27
2023-04-19T22:04:31.283Z,11.38
2023-04-19T22:07:02.642Z,11.18
2023-04-19T22:09:30.453Z,11.41
2023-04-19T22:11:56.997Z,11.05
2023-04-19T22:14:24.052Z,11.44
2023-04-19T22:16:51.156Z,11.07
2023-04-19T22:19:18.486Z,11.36
2023-04-19T22:21:46.770Z,11.31
2023-04-19T22:24:13.383Z,10.82
2023-04-19T22:26:39.996Z,11.06
2023-04-19T22:29:06.685Z,11.20
2023-04-19T22:31:33.467Z,10.83
2023-04-19T22:34:00.148Z,11.11
2023-04-19T22:36:26.742Z,11.11
2023-04-19T22:38:53.334Z,11.23
2023-04-19T22:41:19.998Z,10.82
2023-04-19T22:43:46.610Z,10.90
2023-04-19T22:46:13.365Z,11.16
2023-04-19T22:48:39.974Z,11.30
2023-04-19T22:51:06.688Z,10.79
2023-04-19T22:53:33.354Z,11.09
2023-04-19T22:55:59.909Z,11.13
2023-04-19T22:58:26.489Z,10.98
2023-04-19T23:00:53.192Z,10.89
2023-04-19T23:03:19.854Z,10.97
2023-04-19T23:05:47.435Z,11.14
2023-04-19T23:08:15.343Z,11.11
2023-04-19T23:10:42.577Z,10.90
2023-04-19T23:13:10.573Z,11.07
2023-04-19T23:15:38.675Z,10.95
2023-04-19T23:18:05.423Z,10.74
2023-04-19T23:20:32.287Z,10.96
2023-04-19T23:22:59.215Z,10.97
2023-04-19T23:25:26.182Z,10.91
2023-04-19T23:27:52.921Z,10.87
2023-04-19T23:30:20.007Z,10.81
2023-04-19T23:32:46.810Z,10.70
2023-04-19T23:35:13.378Z,10.83
2023-04-19T23:37:41.112Z,10.62
2023-04-19T23:40:09.524Z,10.77
2023-04-19T23:42:38.392Z,10.95
2023-04-19T23:45:06.423Z,10.80
2023-04-19T23:47:33.887Z,10.40
2023-04-19T23:50:00.887Z,10.70
2023-04-19T23:52:27.664Z,10.89
2023-04-19T23:54:54.260Z,10.76
2023-04-19T23:57:20.793Z,10.78
2023-04-19T23:59:47.425Z,10.70
